sensor_id;sensor_type;location;lat;lon;timestamp;P1;durP1;ratioP1;P2;durP2;ratioP2
63398;SDS011;49533;-34.520;150.798;2024-03-02T00:00:19;10.18;;;2.53;;
63398;SDS011;49533;-34.520;150.798;2024-03-02T00:02:47;6.13;;;2.20;;
63398;SDS011;49533;-34.520;150.798;2024-03-02T00:05:19;7.85;;;2.55;;
63398;SDS011;49533;-34.520;150.798;2024-03-02T00:07:52;3.80;;;1.83;;
63398;SDS011;49533;-34.520;150.798;2024-03-02T00:10:35;7.60;;;2.45;;
63398;SDS011;49533;-34.520;150.798;2024-03-02T00:13:06;7.95;;;2.35;;
63398;SDS011;49533;-34.520;150.798;2024-03-02T00:18:19;7.47;;;2.60;;
63398;SDS011;49533;-34.520;150.798;2024-03-02T00:20:53;11.98;;;3.42;;
63398;SDS011;49533;-34.520;150.798;2024-03-02T00:23:22;4.55;;;2.03;;
63398;SDS011;49533;-34.520;150.798;2024-03-02T00:25:51;6.63;;;1.77;;
63398;SDS011;49533;-34.520;150.798;2024-03-02T00:33:30;7.13;;;2.83;;
63398;SDS011;49533;-34.520;150.798;2024-03-02T00:36:02;6.82;;;2.30;;
63398;SDS011;49533;-34.520;150.798;2024-03-02T00:38:32;8.60;;;3.03;;
63398;SDS011;49533;-34.520;150.798;2024-03-02T00:41:04;7.30;;;2.60;;
63398;SDS011;49533;-34.520;150.798;2024-03-02T00:46:39;6.63;;;2.60;;
63398;SDS011;49533;-34.520;150.798;2024-03-02T00:51:52;11.43;;;4.20;;
63398;SDS011;49533;-34.520;150.798;2024-03-02T00:54:23;8.48;;;2.88;;
63398;SDS011;49533;-34.520;150.798;2024-03-02T00:56:54;7.78;;;2.67;;
63398;SDS011;49533;-34.520;150.798;2024-03-02T00:59:22;5.03;;;2.80;;
63398;SDS011;49533;-34.520;150.798;2024-03-02T01:01:50;11.45;;;3.30;;
63398;SDS011;49533;-34.520;150.798;2024-03-02T01:04:19;6.18;;;2.65;;
63398;SDS011;49533;-34.520;150.798;2024-03-02T01:06:46;10.73;;;3.35;;
63398;SDS011;49533;-34.520;150.798;2024-03-02T01:09:13;8.07;;;3.55;;
63398;SDS011;49533;-34.520;150.798;2024-03-02T01:11:42;7.68;;;2.90;;
63398;SDS011;49533;-34.520;150.798;2024-03-02T01:14:09;9.50;;;3.17;;
63398;SDS011;49533;-34.520;150.798;2024-03-02T01:16:36;7.00;;;2.55;;
63398;SDS011;49533;-34.520;150.798;2024-03-02T01:19:03;4.72;;;2.08;;
63398;SDS011;49533;-34.520;150.798;2024-03-02T01:21:30;9.65;;;2.83;;
63398;SDS011;49533;-34.520;150.798;2024-03-02T01:23:57;6.07;;;2.50;;
63398;SDS011;49533;-34.520;150.798;2024-03-02T01:26:25;6.88;;;2.70;;
63398;SDS011;49533;-34.520;150.798;2024-03-02T01:28:52;5.07;;;2.60;;
63398;SDS011;49533;-34.520;150.798;2024-03-02T01:31:19;7.53;;;2.80;;
63398;SDS011;49533;-34.520;150.798;2024-03-02T01:33:46;6.07;;;2.03;;
63398;SDS011;49533;-34.520;150.798;2024-03-02T01:36:13;10.77;;;3.53;;
63398;SDS011;49533;-34.520;150.798;2024-03-02T01:38:40;7.90;;;2.63;;
63398;SDS011;49533;-34.520;150.798;2024-03-02T01:41:07;6.13;;;2.63;;
63398;SDS011;49533;-34.520;150.798;2024-03-02T01:43:34;8.45;;;3.15;;
63398;SDS011;49533;-34.520;150.798;2024-03-02T01:46:01;4.38;;;2.28;;
63398;SDS011;49533;-34.520;150.798;2024-03-02T01:48:29;7.85;;;2.53;;
63398;SDS011;49533;-34.520;150.798;2024-03-02T01:50:56;8.27;;;2.78;;
63398;SDS011;49533;-34.520;150.798;2024-03-02T01:53:23;5.28;;;2.65;;
63398;SDS011;49533;-34.520;150.798;2024-03-02T01:55:50;6.63;;;2.47;;
63398;SDS011;49533;-34.520;150.798;2024-03-02T01:58:17;5.38;;;2.50;;
63398;SDS011;49533;-34.520;150.798;2024-03-02T02:00:44;6.15;;;2.50;;
63398;SDS011;49533;-34.520;150.798;2024-03-02T02:03:11;5.53;;;2.65;;
63398;SDS011;49533;-34.520;150.798;2024-03-02T02:05:38;4.63;;;1.98;;
63398;SDS011;49533;-34.520;150.798;2024-03-02T02:08:08;5.13;;;2.13;;
63398;SDS011;49533;-34.520;150.798;2024-03-02T02:10:35;5.25;;;2.30;;
63398;SDS011;49533;-34.520;150.798;2024-03-02T02:13:03;6.32;;;2.65;;
63398;SDS011;49533;-34.520;150.798;2024-03-02T02:15:30;5.45;;;2.10;;
63398;SDS011;49533;-34.520;150.798;2024-03-02T02:18:00;6.85;;;2.50;;
63398;SDS011;49533;-34.520;150.798;2024-03-02T02:20:27;4.45;;;2.13;;
63398;SDS011;49533;-34.520;150.798;2024-03-02T02:22:58;4.78;;;2.40;;
63398;SDS011;49533;-34.520;150.798;2024-03-02T02:25:26;4.43;;;2.20;;
63398;SDS011;49533;-34.520;150.798;2024-03-02T02:27:54;4.32;;;2.30;;
63398;SDS011;49533;-34.520;150.798;2024-03-02T02:30:27;3.70;;;1.90;;
63398;SDS011;49533;-34.520;150.798;2024-03-02T02:32:56;3.42;;;2.13;;
63398;SDS011;49533;-34.520;150.798;2024-03-02T02:35:24;4.05;;;2.50;;
63398;SDS011;49533;-34.520;150.798;2024-03-02T02:37:51;6.00;;;2.70;;
63398;SDS011;49533;-34.520;150.798;2024-03-02T02:40:20;3.80;;;2.05;;
63398;SDS011;49533;-34.520;150.798;2024-03-02T02:42:48;3.03;;;1.88;;
63398;SDS011;49533;-34.520;150.798;2024-03-02T02:45:15;11.23;;;2.42;;
63398;SDS011;49533;-34.520;150.798;2024-03-02T02:47:43;7.80;;;2.50;;
63398;SDS011;49533;-34.520;150.798;2024-03-02T02:50:11;4.68;;;2.13;;
63398;SDS011;49533;-34.520;150.798;2024-03-02T02:52:39;11.38;;;2.45;;
63398;SDS011;49533;-34.520;150.798;2024-03-02T02:55:09;4.38;;;2.40;;
63398;SDS011;49533;-34.520;150.798;2024-03-02T02:57:38;4.85;;;2.17;;
63398;SDS011;49533;-34.520;150.798;2024-03-02T03:00:11;5.03;;;2.30;;
63398;SDS011;49533;-34.520;150.798;2024-03-02T03:02:45;4.35;;;2.20;;
63398;SDS011;49533;-34.520;150.798;2024-03-02T03:05:14;3.95;;;2.13;;
63398;SDS011;49533;-34.520;150.798;2024-03-02T03:07:42;4.72;;;2.15;;
63398;SDS011;49533;-34.520;150.798;2024-03-02T03:10:10;8.35;;;2.40;;
63398;SDS011;49533;-34.520;150.798;2024-03-02T03:12:37;8.13;;;2.40;;
63398;SDS011;49533;-34.520;150.798;2024-03-02T03:15:06;4.32;;;2.05;;
63398;SDS011;49533;-34.520;150.798;2024-03-02T03:17:34;4.55;;;2.55;;
63398;SDS011;49533;-34.520;150.798;2024-03-02T03:20:05;9.45;;;2.58;;
63398;SDS011;49533;-34.520;150.798;2024-03-02T03:22:35;7.63;;;2.40;;
63398;SDS011;49533;-34.520;150.798;2024-03-02T03:25:03;4.30;;;2.00;;
63398;SDS011;49533;-34.520;150.798;2024-03-02T03:27:31;9.95;;;2.13;;
63398;SDS011;49533;-34.520;150.798;2024-03-02T03:29:58;3.30;;;2.22;;
63398;SDS011;49533;-34.520;150.798;2024-03-02T03:32:25;6.63;;;2.20;;
63398;SDS011;49533;-34.520;150.798;2024-03-02T03:34:52;6.03;;;2.10;;
63398;SDS011;49533;-34.520;150.798;2024-03-02T03:37:19;7.35;;;2.13;;
63398;SDS011;49533;-34.520;150.798;2024-03-02T03:39:46;5.70;;;2.08;;
63398;SDS011;49533;-34.520;150.798;2024-03-02T03:42:14;5.18;;;2.20;;
63398;SDS011;49533;-34.520;150.798;2024-03-02T03:44:41;6.22;;;2.45;;
63398;SDS011;49533;-34.520;150.798;2024-03-02T03:47:08;5.97;;;2.33;;
63398;SDS011;49533;-34.520;150.798;2024-03-02T03:49:35;4.50;;;2.10;;
63398;SDS011;49533;-34.520;150.798;2024-03-02T03:52:02;8.93;;;2.40;;
63398;SDS011;49533;-34.520;150.798;2024-03-02T03:54:30;11.70;;;2.75;;
63398;SDS011;49533;-34.520;150.798;2024-03-02T03:56:57;9.20;;;2.90;;
63398;SDS011;49533;-34.520;150.798;2024-03-02T03:59:24;8.25;;;2.88;;
63398;SDS011;49533;-34.520;150.798;2024-03-02T04:01:51;10.30;;;2.60;;
63398;SDS011;49533;-34.520;150.798;2024-03-02T04:04:19;8.75;;;2.30;;
63398;SDS011;49533;-34.520;150.798;2024-03-02T04:06:46;9.02;;;2.45;;
63398;SDS011;49533;-34.520;150.798;2024-03-02T04:09:13;4.90;;;2.10;;
63398;SDS011;49533;-34.520;150.798;2024-03-02T04:11:40;6.35;;;2.40;;
63398;SDS011;49533;-34.520;150.798;2024-03-02T04:14:07;4.22;;;2.20;;
63398;SDS011;49533;-34.520;150.798;2024-03-02T04:16:35;6.68;;;2.42;;
63398;SDS011;49533;-34.520;150.798;2024-03-02T04:19:02;6.88;;;2.15;;
63398;SDS011;49533;-34.520;150.798;2024-03-02T04:21:29;3.03;;;1.83;;
63398;SDS011;49533;-34.520;150.798;2024-03-02T04:24:00;7.88;;;2.08;;
63398;SDS011;49533;-34.520;150.798;2024-03-02T04:26:28;4.93;;;1.80;;
63398;SDS011;49533;-34.520;150.798;2024-03-02T04:28:55;5.30;;;2.20;;
63398;SDS011;49533;-34.520;150.798;2024-03-02T04:31:22;5.45;;;1.67;;
63398;SDS011;49533;-34.520;150.798;2024-03-02T04:33:49;4.38;;;1.33;;
63398;SDS011;49533;-34.520;150.798;2024-03-02T04:36:16;4.05;;;1.80;;
63398;SDS011;49533;-34.520;150.798;2024-03-02T04:38:43;5.00;;;1.70;;
63398;SDS011;49533;-34.520;150.798;2024-03-02T04:41:11;3.53;;;1.70;;
63398;SDS011;49533;-34.520;150.798;2024-03-02T04:43:38;2.55;;;1.23;;
63398;SDS011;49533;-34.520;150.798;2024-03-02T04:46:05;3.05;;;1.42;;
63398;SDS011;49533;-34.520;150.798;2024-03-02T04:48:33;3.22;;;1.35;;
63398;SDS011;49533;-34.520;150.798;2024-03-02T04:51:00;3.35;;;1.45;;
63398;SDS011;49533;-34.520;150.798;2024-03-02T04:53:27;7.15;;;1.98;;
63398;SDS011;49533;-34.520;150.798;2024-03-02T04:55:54;7.25;;;2.20;;
63398;SDS011;49533;-34.520;150.798;2024-03-02T04:58:21;8.75;;;2.30;;
63398;SDS011;49533;-34.520;150.798;2024-03-02T05:00:48;21.00;;;2.55;;
63398;SDS011;49533;-34.520;150.798;2024-03-02T05:03:19;7.57;;;2.75;;
63398;SDS011;49533;-34.520;150.798;2024-03-02T05:05:46;7.32;;;2.35;;
63398;SDS011;49533;-34.520;150.798;2024-03-02T05:08:13;11.82;;;3.05;;
63398;SDS011;49533;-34.520;150.798;2024-03-02T05:10:41;11.55;;;2.38;;
63398;SDS011;49533;-34.520;150.798;2024-03-02T05:13:08;12.10;;;2.05;;
63398;SDS011;49533;-34.520;150.798;2024-03-02T05:15:35;10.55;;;2.25;;
63398;SDS011;49533;-34.520;150.798;2024-03-02T05:18:03;8.23;;;2.15;;
63398;SDS011;49533;-34.520;150.798;2024-03-02T05:20:30;8.07;;;2.30;;
63398;SDS011;49533;-34.520;150.798;2024-03-02T05:22:57;6.10;;;1.70;;
63398;SDS011;49533;-34.520;150.798;2024-03-02T05:25:25;4.47;;;1.60;;
63398;SDS011;49533;-34.520;150.798;2024-03-02T05:27:52;7.95;;;2.22;;
63398;SDS011;49533;-34.520;150.798;2024-03-02T05:30:19;5.30;;;1.73;;
63398;SDS011;49533;-34.520;150.798;2024-03-02T05:32:49;6.55;;;2.00;;
63398;SDS011;49533;-34.520;150.798;2024-03-02T05:35:16;3.90;;;1.55;;
63398;SDS011;49533;-34.520;150.798;2024-03-02T05:37:44;7.78;;;2.03;;
63398;SDS011;49533;-34.520;150.798;2024-03-02T05:40:11;5.78;;;2.05;;
63398;SDS011;49533;-34.520;150.798;2024-03-02T05:42:38;6.47;;;2.03;;
63398;SDS011;49533;-34.520;150.798;2024-03-02T05:45:07;6.78;;;1.83;;
63398;SDS011;49533;-34.520;150.798;2024-03-02T05:47:34;6.00;;;1.90;;
63398;SDS011;49533;-34.520;150.798;2024-03-02T05:50:02;4.95;;;1.80;;
63398;SDS011;49533;-34.520;150.798;2024-03-02T05:52:29;5.70;;;1.55;;
63398;SDS011;49533;-34.520;150.798;2024-03-02T05:54:56;6.20;;;1.77;;
63398;SDS011;49533;-34.520;150.798;2024-03-02T05:57:24;5.00;;;1.83;;
63398;SDS011;49533;-34.520;150.798;2024-03-02T06:00:04;10.80;;;2.55;;
63398;SDS011;49533;-34.520;150.798;2024-03-02T06:02:33;5.93;;;1.77;;
63398;SDS011;49533;-34.520;150.798;2024-03-02T06:05:03;6.80;;;1.85;;
63398;SDS011;49533;-34.520;150.798;2024-03-02T06:07:30;4.72;;;1.88;;
63398;SDS011;49533;-34.520;150.798;2024-03-02T06:09:57;6.40;;;1.58;;
63398;SDS011;49533;-34.520;150.798;2024-03-02T06:12:24;6.50;;;2.00;;
63398;SDS011;49533;-34.520;150.798;2024-03-02T06:14:51;9.43;;;2.03;;
63398;SDS011;49533;-34.520;150.798;2024-03-02T06:17:19;5.50;;;1.55;;
63398;SDS011;49533;-34.520;150.798;2024-03-02T06:19:46;6.65;;;1.92;;
63398;SDS011;49533;-34.520;150.798;2024-03-02T06:22:13;7.70;;;2.00;;
63398;SDS011;49533;-34.520;150.798;2024-03-02T06:24:40;5.57;;;1.63;;
63398;SDS011;49533;-34.520;150.798;2024-03-02T06:27:07;9.32;;;2.03;;
63398;SDS011;49533;-34.520;150.798;2024-03-02T06:29:34;5.82;;;1.65;;
63398;SDS011;49533;-34.520;150.798;2024-03-02T06:32:02;6.38;;;1.90;;
63398;SDS011;49533;-34.520;150.798;2024-03-02T06:34:29;6.72;;;2.08;;
63398;SDS011;49533;-34.520;150.798;2024-03-02T06:36:56;6.60;;;1.77;;
63398;SDS011;49533;-34.520;150.798;2024-03-02T06:39:23;8.50;;;1.83;;
63398;SDS011;49533;-34.520;150.798;2024-03-02T06:41:52;5.95;;;2.03;;
63398;SDS011;49533;-34.520;150.798;2024-03-02T06:44:19;4.35;;;1.67;;
63398;SDS011;49533;-34.520;150.798;2024-03-02T06:46:46;7.28;;;1.90;;
63398;SDS011;49533;-34.520;150.798;2024-03-02T06:49:14;7.38;;;2.05;;
63398;SDS011;49533;-34.520;150.798;2024-03-02T06:51:43;6.18;;;1.70;;
63398;SDS011;49533;-34.520;150.798;2024-03-02T06:54:11;6.75;;;2.25;;
63398;SDS011;49533;-34.520;150.798;2024-03-02T06:56:38;6.47;;;1.65;;
63398;SDS011;49533;-34.520;150.798;2024-03-02T06:59:05;5.22;;;1.58;;
63398;SDS011;49533;-34.520;150.798;2024-03-02T07:01:33;4.43;;;1.70;;
63398;SDS011;49533;-34.520;150.798;2024-03-02T07:04:00;6.75;;;1.45;;
63398;SDS011;49533;-34.520;150.798;2024-03-02T07:06:27;7.00;;;1.85;;
63398;SDS011;49533;-34.520;150.798;2024-03-02T07:08:54;8.65;;;2.97;;
63398;SDS011;49533;-34.520;150.798;2024-03-02T07:11:21;7.18;;;1.92;;
63398;SDS011;49533;-34.520;150.798;2024-03-02T07:13:48;3.22;;;1.63;;
63398;SDS011;49533;-34.520;150.798;2024-03-02T07:16:15;4.95;;;1.83;;
63398;SDS011;49533;-34.520;150.798;2024-03-02T07:18:55;4.55;;;1.60;;
63398;SDS011;49533;-34.520;150.798;2024-03-02T07:21:24;6.53;;;1.98;;
63398;SDS011;49533;-34.520;150.798;2024-03-02T07:23:51;6.95;;;1.92;;
63398;SDS011;49533;-34.520;150.798;2024-03-02T07:26:18;5.88;;;1.58;;
63398;SDS011;49533;-34.520;150.798;2024-03-02T07:28:46;84.28;;;8.45;;
63398;SDS011;49533;-34.520;150.798;2024-03-02T07:31:14;48.83;;;4.82;;
63398;SDS011;49533;-34.520;150.798;2024-03-02T07:33:43;51.22;;;5.00;;
63398;SDS011;49533;-34.520;150.798;2024-03-02T07:36:12;43.25;;;4.97;;
63398;SDS011;49533;-34.520;150.798;2024-03-02T07:38:39;37.10;;;4.10;;
63398;SDS011;49533;-34.520;150.798;2024-03-02T07:41:07;26.45;;;3.72;;
63398;SDS011;49533;-34.520;150.798;2024-03-02T07:43:39;23.55;;;3.85;;
63398;SDS011;49533;-34.520;150.798;2024-03-02T07:46:06;23.90;;;3.50;;
63398;SDS011;49533;-34.520;150.798;2024-03-02T07:48:33;15.98;;;2.88;;
63398;SDS011;49533;-34.520;150.798;2024-03-02T07:51:00;11.85;;;2.88;;
63398;SDS011;49533;-34.520;150.798;2024-03-02T07:53:28;11.75;;;2.65;;
63398;SDS011;49533;-34.520;150.798;2024-03-02T07:55:55;14.05;;;2.72;;
63398;SDS011;49533;-34.520;150.798;2024-03-02T07:58:27;13.25;;;2.60;;
63398;SDS011;49533;-34.520;150.798;2024-03-02T08:00:56;10.32;;;2.83;;
63398;SDS011;49533;-34.520;150.798;2024-03-02T08:03:23;10.20;;;2.28;;
63398;SDS011;49533;-34.520;150.798;2024-03-02T08:05:50;10.38;;;2.00;;
63398;SDS011;49533;-34.520;150.798;2024-03-02T08:08:18;10.18;;;2.35;;
63398;SDS011;49533;-34.520;150.798;2024-03-02T08:10:45;10.27;;;2.33;;
63398;SDS011;49533;-34.520;150.798;2024-03-02T08:13:12;10.85;;;2.42;;
63398;SDS011;49533;-34.520;150.798;2024-03-02T08:15:39;13.02;;;1.90;;
63398;SDS011;49533;-34.520;150.798;2024-03-02T08:18:06;10.52;;;2.10;;
63398;SDS011;49533;-34.520;150.798;2024-03-02T08:20:34;6.78;;;2.35;;
63398;SDS011;49533;-34.520;150.798;2024-03-02T08:23:01;9.63;;;2.75;;
63398;SDS011;49533;-34.520;150.798;2024-03-02T08:25:28;7.50;;;1.95;;
63398;SDS011;49533;-34.520;150.798;2024-03-02T08:27:56;9.52;;;2.10;;
63398;SDS011;49533;-34.520;150.798;2024-03-02T08:30:23;4.20;;;1.80;;
63398;SDS011;49533;-34.520;150.798;2024-03-02T08:32:51;9.35;;;2.30;;
63398;SDS011;49533;-34.520;150.798;2024-03-02T08:35:18;6.38;;;2.30;;
63398;SDS011;49533;-34.520;150.798;2024-03-02T08:37:45;9.00;;;1.95;;
63398;SDS011;49533;-34.520;150.798;2024-03-02T08:40:12;9.77;;;2.03;;
63398;SDS011;49533;-34.520;150.798;2024-03-02T08:42:40;10.07;;;2.95;;
63398;SDS011;49533;-34.520;150.798;2024-03-02T08:45:07;9.02;;;2.17;;
63398;SDS011;49533;-34.520;150.798;2024-03-02T08:47:35;6.95;;;1.90;;
63398;SDS011;49533;-34.520;150.798;2024-03-02T08:50:02;9.98;;;2.22;;
63398;SDS011;49533;-34.520;150.798;2024-03-02T08:52:30;5.85;;;2.30;;
63398;SDS011;49533;-34.520;150.798;2024-03-02T08:54:57;6.07;;;2.15;;
63398;SDS011;49533;-34.520;150.798;2024-03-02T08:57:24;5.30;;;2.22;;
63398;SDS011;49533;-34.520;150.798;2024-03-02T08:59:51;5.88;;;1.83;;
63398;SDS011;49533;-34.520;150.798;2024-03-02T09:02:19;5.57;;;2.10;;
63398;SDS011;49533;-34.520;150.798;2024-03-02T09:04:46;7.28;;;2.03;;
63398;SDS011;49533;-34.520;150.798;2024-03-02T09:07:13;4.45;;;1.58;;
63398;SDS011;49533;-34.520;150.798;2024-03-02T09:09:40;7.80;;;2.13;;
63398;SDS011;49533;-34.520;150.798;2024-03-02T09:12:07;6.10;;;2.40;;
63398;SDS011;49533;-34.520;150.798;2024-03-02T09:14:35;7.80;;;2.55;;
63398;SDS011;49533;-34.520;150.798;2024-03-02T09:17:03;7.18;;;1.95;;
63398;SDS011;49533;-34.520;150.798;2024-03-02T09:19:31;4.70;;;1.55;;
63398;SDS011;49533;-34.520;150.798;2024-03-02T09:21:58;4.82;;;1.77;;
63398;SDS011;49533;-34.520;150.798;2024-03-02T09:24:25;5.63;;;2.15;;
63398;SDS011;49533;-34.520;150.798;2024-03-02T09:26:52;6.43;;;1.85;;
63398;SDS011;49533;-34.520;150.798;2024-03-02T09:29:20;6.20;;;1.70;;
63398;SDS011;49533;-34.520;150.798;2024-03-02T09:31:48;3.00;;;1.77;;
63398;SDS011;49533;-34.520;150.798;2024-03-02T09:34:16;6.03;;;1.85;;
63398;SDS011;49533;-34.520;150.798;2024-03-02T09:36:44;3.80;;;1.70;;
63398;SDS011;49533;-34.520;150.798;2024-03-02T09:39:12;3.85;;;1.67;;
63398;SDS011;49533;-34.520;150.798;2024-03-02T09:41:40;3.75;;;1.63;;
63398;SDS011;49533;-34.520;150.798;2024-03-02T09:44:08;5.00;;;2.15;;
63398;SDS011;49533;-34.520;150.798;2024-03-02T09:46:36;4.45;;;2.13;;
63398;SDS011;49533;-34.520;150.798;2024-03-02T09:49:04;3.53;;;1.73;;
63398;SDS011;49533;-34.520;150.798;2024-03-02T09:51:32;3.97;;;1.40;;
63398;SDS011;49533;-34.520;150.798;2024-03-02T09:54:00;5.18;;;1.73;;
63398;SDS011;49533;-34.520;150.798;2024-03-02T09:56:28;5.68;;;1.73;;
63398;SDS011;49533;-34.520;150.798;2024-03-02T09:58:55;5.82;;;1.67;;
63398;SDS011;49533;-34.520;150.798;2024-03-02T10:01:23;5.22;;;1.88;;
63398;SDS011;49533;-34.520;150.798;2024-03-02T10:03:51;5.35;;;1.67;;
63398;SDS011;49533;-34.520;150.798;2024-03-02T10:06:20;4.68;;;1.67;;
63398;SDS011;49533;-34.520;150.798;2024-03-02T10:08:48;6.32;;;1.95;;
63398;SDS011;49533;-34.520;150.798;2024-03-02T10:11:26;6.80;;;2.30;;
63398;SDS011;49533;-34.520;150.798;2024-03-02T10:14:05;4.30;;;1.95;;
63398;SDS011;49533;-34.520;150.798;2024-03-02T10:16:42;3.30;;;1.58;;
63398;SDS011;49533;-34.520;150.798;2024-03-02T10:19:20;3.25;;;1.38;;
63398;SDS011;49533;-34.520;150.798;2024-03-02T10:21:52;4.50;;;1.90;;
63398;SDS011;49533;-34.520;150.798;2024-03-02T10:24:22;4.57;;;2.00;;
63398;SDS011;49533;-34.520;150.798;2024-03-02T10:26:51;4.32;;;1.85;;
63398;SDS011;49533;-34.520;150.798;2024-03-02T10:29:19;4.72;;;1.30;;
63398;SDS011;49533;-34.520;150.798;2024-03-02T10:31:48;3.03;;;1.23;;
63398;SDS011;49533;-34.520;150.798;2024-03-02T10:34:15;4.55;;;1.77;;
63398;SDS011;49533;-34.520;150.798;2024-03-02T10:36:43;3.47;;;1.63;;
63398;SDS011;49533;-34.520;150.798;2024-03-02T10:39:14;6.03;;;2.03;;
63398;SDS011;49533;-34.520;150.798;2024-03-02T10:41:41;1.80;;;1.27;;
63398;SDS011;49533;-34.520;150.798;2024-03-02T10:44:10;5.13;;;1.88;;
63398;SDS011;49533;-34.520;150.798;2024-03-02T10:46:39;2.95;;;1.55;;
63398;SDS011;49533;-34.520;150.798;2024-03-02T10:49:07;5.18;;;1.45;;
63398;SDS011;49533;-34.520;150.798;2024-03-02T10:51:35;4.63;;;1.30;;
63398;SDS011;49533;-34.520;150.798;2024-03-02T10:54:03;4.07;;;1.90;;
63398;SDS011;49533;-34.520;150.798;2024-03-02T10:59:15;3.20;;;1.15;;
63398;SDS011;49533;-34.520;150.798;2024-03-02T11:02:00;3.55;;;1.92;;
63398;SDS011;49533;-34.520;150.798;2024-03-02T11:04:30;5.03;;;1.30;;
63398;SDS011;49533;-34.520;150.798;2024-03-02T11:07:05;3.20;;;1.25;;
63398;SDS011;49533;-34.520;150.798;2024-03-02T11:09:37;3.72;;;1.20;;
63398;SDS011;49533;-34.520;150.798;2024-03-02T11:12:19;3.25;;;1.38;;
63398;SDS011;49533;-34.520;150.798;2024-03-02T11:14:59;5.23;;;1.70;;
63398;SDS011;49533;-34.520;150.798;2024-03-02T11:17:30;4.82;;;1.58;;
63398;SDS011;49533;-34.520;150.798;2024-03-02T11:19:57;3.50;;;1.40;;
63398;SDS011;49533;-34.520;150.798;2024-03-02T11:22:26;2.03;;;1.20;;
63398;SDS011;49533;-34.520;150.798;2024-03-02T11:24:55;3.03;;;1.48;;
63398;SDS011;49533;-34.520;150.798;2024-03-02T11:28:05;5.80;;;1.77;;
63398;SDS011;49533;-34.520;150.798;2024-03-02T11:33:03;5.40;;;1.90;;
63398;SDS011;49533;-34.520;150.798;2024-03-02T11:35:52;4.35;;;1.50;;
63398;SDS011;49533;-34.520;150.798;2024-03-02T11:38:19;7.00;;;1.60;;
63398;SDS011;49533;-34.520;150.798;2024-03-02T11:40:47;3.42;;;1.75;;
63398;SDS011;49533;-34.520;150.798;2024-03-02T11:43:15;4.72;;;1.77;;
63398;SDS011;49533;-34.520;150.798;2024-03-02T11:45:43;6.22;;;1.85;;
63398;SDS011;49533;-34.520;150.798;2024-03-02T11:48:12;2.30;;;1.20;;
63398;SDS011;49533;-34.520;150.798;2024-03-02T11:50:42;3.08;;;1.48;;
63398;SDS011;49533;-34.520;150.798;2024-03-02T11:53:14;2.47;;;1.50;;
63398;SDS011;49533;-34.520;150.798;2024-03-02T11:55:43;4.07;;;1.65;;
63398;SDS011;49533;-34.520;150.798;2024-03-02T11:58:15;3.65;;;1.77;;
63398;SDS011;49533;-34.520;150.798;2024-03-02T12:00:46;4.72;;;1.65;;
63398;SDS011;49533;-34.520;150.798;2024-03-02T12:03:13;7.20;;;1.77;;
63398;SDS011;49533;-34.520;150.798;2024-03-02T12:05:41;4.57;;;1.80;;
63398;SDS011;49533;-34.520;150.798;2024-03-02T12:08:11;7.35;;;1.75;;
63398;SDS011;49533;-34.520;150.798;2024-03-02T12:10:40;4.13;;;1.38;;
63398;SDS011;49533;-34.520;150.798;2024-03-02T12:13:08;6.38;;;1.50;;
63398;SDS011;49533;-34.520;150.798;2024-03-02T12:15:37;5.30;;;1.75;;
63398;SDS011;49533;-34.520;150.798;2024-03-02T12:18:08;3.53;;;1.52;;
63398;SDS011;49533;-34.520;150.798;2024-03-02T12:20:35;2.78;;;1.08;;
63398;SDS011;49533;-34.520;150.798;2024-03-02T12:23:03;3.58;;;1.35;;
63398;SDS011;49533;-34.520;150.798;2024-03-02T12:25:31;4.53;;;1.67;;
63398;SDS011;49533;-34.520;150.798;2024-03-02T12:28:00;4.10;;;1.52;;
63398;SDS011;49533;-34.520;150.798;2024-03-02T12:30:32;4.05;;;1.38;;
63398;SDS011;49533;-34.520;150.798;2024-03-02T12:35:29;4.07;;;1.15;;
63398;SDS011;49533;-34.520;150.798;2024-03-02T12:38:00;3.78;;;1.35;;
63398;SDS011;49533;-34.520;150.798;2024-03-02T12:40:27;4.43;;;1.52;;
63398;SDS011;49533;-34.520;150.798;2024-03-02T12:42:58;5.60;;;1.70;;
63398;SDS011;49533;-34.520;150.798;2024-03-02T12:45:26;5.97;;;1.80;;
63398;SDS011;49533;-34.520;150.798;2024-03-02T12:47:55;3.30;;;1.52;;
63398;SDS011;49533;-34.520;150.798;2024-03-02T12:50:23;1.85;;;1.10;;
63398;SDS011;49533;-34.520;150.798;2024-03-02T12:52:51;3.13;;;1.13;;
63398;SDS011;49533;-34.520;150.798;2024-03-02T12:55:19;4.20;;;1.27;;
63398;SDS011;49533;-34.520;150.798;2024-03-02T12:57:49;3.60;;;1.20;;
63398;SDS011;49533;-34.520;150.798;2024-03-02T13:00:18;3.67;;;1.65;;
63398;SDS011;49533;-34.520;150.798;2024-03-02T13:02:46;4.22;;;1.85;;
63398;SDS011;49533;-34.520;150.798;2024-03-02T13:05:16;4.00;;;1.33;;
63398;SDS011;49533;-34.520;150.798;2024-03-02T13:07:43;4.43;;;1.52;;
63398;SDS011;49533;-34.520;150.798;2024-03-02T13:10:13;4.45;;;1.63;;
63398;SDS011;49533;-34.520;150.798;2024-03-02T13:12:40;3.17;;;1.52;;
63398;SDS011;49533;-34.520;150.798;2024-03-02T13:15:08;3.05;;;1.10;;
63398;SDS011;49533;-34.520;150.798;2024-03-02T13:17:36;5.20;;;1.65;;
63398;SDS011;49533;-34.520;150.798;2024-03-02T13:20:05;4.32;;;1.70;;
63398;SDS011;49533;-34.520;150.798;2024-03-02T13:22:36;5.10;;;1.40;;
63398;SDS011;49533;-34.520;150.798;2024-03-02T13:25:03;4.05;;;1.08;;
63398;SDS011;49533;-34.520;150.798;2024-03-02T13:27:31;3.40;;;1.15;;
63398;SDS011;49533;-34.520;150.798;2024-03-02T13:29:59;4.55;;;1.63;;
63398;SDS011;49533;-34.520;150.798;2024-03-02T13:32:26;3.70;;;1.92;;
63398;SDS011;49533;-34.520;150.798;2024-03-02T13:34:53;3.35;;;1.30;;
63398;SDS011;49533;-34.520;150.798;2024-03-02T13:37:20;4.25;;;1.42;;
63398;SDS011;49533;-34.520;150.798;2024-03-02T13:39:48;3.20;;;1.25;;
63398;SDS011;49533;-34.520;150.798;2024-03-02T13:42:15;4.03;;;1.45;;
63398;SDS011;49533;-34.520;150.798;2024-03-02T13:44:43;3.35;;;1.58;;
63398;SDS011;49533;-34.520;150.798;2024-03-02T13:47:16;4.97;;;1.67;;
63398;SDS011;49533;-34.520;150.798;2024-03-02T13:49:44;5.38;;;1.48;;
63398;SDS011;49533;-34.520;150.798;2024-03-02T13:52:14;4.72;;;1.08;;
63398;SDS011;49533;-34.520;150.798;2024-03-02T13:54:46;2.88;;;1.48;;
63398;SDS011;49533;-34.520;150.798;2024-03-02T13:57:13;2.50;;;1.33;;
63398;SDS011;49533;-34.520;150.798;2024-03-02T13:59:41;3.90;;;1.55;;
63398;SDS011;49533;-34.520;150.798;2024-03-02T14:02:09;3.50;;;1.25;;
63398;SDS011;49533;-34.520;150.798;2024-03-02T14:04:37;3.38;;;1.92;;
63398;SDS011;49533;-34.520;150.798;2024-03-02T14:07:05;2.78;;;1.30;;
63398;SDS011;49533;-34.520;150.798;2024-03-02T14:09:36;3.70;;;1.45;;
63398;SDS011;49533;-34.520;150.798;2024-03-02T14:12:04;4.95;;;1.52;;
63398;SDS011;49533;-34.520;150.798;2024-03-02T14:14:31;3.10;;;1.33;;
63398;SDS011;49533;-34.520;150.798;2024-03-02T14:16:59;3.40;;;1.65;;
63398;SDS011;49533;-34.520;150.798;2024-03-02T14:19:32;5.68;;;1.73;;
63398;SDS011;49533;-34.520;150.798;2024-03-02T14:21:59;4.18;;;1.65;;
63398;SDS011;49533;-34.520;150.798;2024-03-02T14:24:26;5.13;;;1.45;;
63398;SDS011;49533;-34.520;150.798;2024-03-02T14:26:54;5.68;;;1.40;;
63398;SDS011;49533;-34.520;150.798;2024-03-02T14:29:27;3.85;;;1.42;;
63398;SDS011;49533;-34.520;150.798;2024-03-02T14:31:54;6.38;;;2.13;;
63398;SDS011;49533;-34.520;150.798;2024-03-02T14:34:21;3.53;;;1.60;;
63398;SDS011;49533;-34.520;150.798;2024-03-02T14:36:49;3.45;;;1.30;;